sensor_id;sensor_type;location;lat;lon;timestamp;temperature;humidity
2300;DHT22;1158;48.750;9.078;2024-03-08T00:00:27;2.10;99.90
2300;DHT22;1158;48.750;9.078;2024-03-08T00:02:53;2.10;99.90
2300;DHT22;1158;48.750;9.078;2024-03-08T00:05:20;2.10;99.90
2300;DHT22;1158;48.750;9.078;2024-03-08T00:07:47;2.10;99.90
2300;DHT22;1158;48.750;9.078;2024-03-08T00:10:15;2.10;99.90
2300;DHT22;1158;48.750;9.078;2024-03-08T00:12:43;2.00;99.90
2300;DHT22;1158;48.750;9.078;2024-03-08T00:15:12;1.90;99.90
2300;DHT22;1158;48.750;9.078;2024-03-08T00:17:40;1.90;99.90
2300;DHT22;1158;48.750;9.078;2024-03-08T00:20:07;1.90;99.90
2300;DHT22;1158;48.750;9.078;2024-03-08T00:22:35;1.80;99.90
2300;DHT22;1158;48.750;9.078;2024-03-08T00:25:02;1.80;99.90
2300;DHT22;1158;48.750;9.078;2024-03-08T00:27:30;1.70;99.90
2300;DHT22;1158;48.750;9.078;2024-03-08T00:29:57;1.60;99.90
2300;DHT22;1158;48.750;9.078;2024-03-08T00:32:24;1.60;99.90
2300;DHT22;1158;48.750;9.078;2024-03-08T00:34:50;1.60;99.90
2300;DHT22;1158;48.750;9.078;2024-03-08T00:37:18;1.60;99.90
2300;DHT22;1158;48.750;9.078;2024-03-08T00:39:44;1.60;99.90
2300;DHT22;1158;48.750;9.078;2024-03-08T00:42:11;1.50;99.90
2300;DHT22;1158;48.750;9.078;2024-03-08T00:44:40;1.50;99.90
2300;DHT22;1158;48.750;9.078;2024-03-08T00:47:07;1.60;99.90
2300;DHT22;1158;48.750;9.078;2024-03-08T00:49:33;1.50;99.90
2300;DHT22;1158;48.750;9.078;2024-03-08T00:52:02;1.50;99.90
2300;DHT22;1158;48.750;9.078;2024-03-08T00:54:29;1.50;99.90
2300;DHT22;1158;48.750;9.078;2024-03-08T00:56:55;1.40;99.90
2300;DHT22;1158;48.750;9.078;2024-03-08T00:59:22;1.40;99.90
2300;DHT22;1158;48.750;9.078;2024-03-08T01:01:50;1.30;99.90
2300;DHT22;1158;48.750;9.078;2024-03-08T01:04:17;1.30;99.90
2300;DHT22;1158;48.750;9.078;2024-03-08T01:06:44;1.20;99.90
2300;DHT22;1158;48.750;9.078;2024-03-08T01:09:12;1.10;99.90
2300;DHT22;1158;48.750;9.078;2024-03-08T01:11:39;1.10;99.90
2300;DHT22;1158;48.750;9.078;2024-03-08T01:14:07;1.10;99.90
2300;DHT22;1158;48.750;9.078;2024-03-08T01:16:34;1.10;99.90
2300;DHT22;1158;48.750;9.078;2024-03-08T01:19:02;1.10;99.90
2300;DHT22;1158;48.750;9.078;2024-03-08T01:21:29;1.10;99.90
2300;DHT22;1158;48.750;9.078;2024-03-08T01:23:56;1.10;99.90
2300;DHT22;1158;48.750;9.078;2024-03-08T01:26:23;1.00;99.90
2300;DHT22;1158;48.750;9.078;2024-03-08T01:28:49;1.00;99.90
2300;DHT22;1158;48.750;9.078;2024-03-08T01:31:16;0.90;99.90
2300;DHT22;1158;48.750;9.078;2024-03-08T01:33:43;1.00;99.90
2300;DHT22;1158;48.750;9.078;2024-03-08T01:36:11;1.00;99.90
2300;DHT22;1158;48.750;9.078;2024-03-08T01:38:40;0.90;99.90
2300;DHT22;1158;48.750;9.078;2024-03-08T01:41:07;0.90;99.90
2300;DHT22;1158;48.750;9.078;2024-03-08T01:43:34;0.80;99.90
2300;DHT22;1158;48.750;9.078;2024-03-08T01:46:01;0.80;99.90
2300;DHT22;1158;48.750;9.078;2024-03-08T01:48:28;0.80;99.90
2300;DHT22;1158;48.750;9.078;2024-03-08T01:50:56;0.90;99.90
2300;DHT22;1158;48.750;9.078;2024-03-08T01:53:24;0.90;99.90
2300;DHT22;1158;48.750;9.078;2024-03-08T01:55:56;0.80;99.90
2300;DHT22;1158;48.750;9.078;2024-03-08T01:58:23;0.80;99.90
2300;DHT22;1158;48.750;9.078;2024-03-08T02:00:50;0.80;99.90
2300;DHT22;1158;48.750;9.078;2024-03-08T02:03:17;0.70;99.90
2300;DHT22;1158;48.750;9.078;2024-03-08T02:05:43;0.70;99.90
2300;DHT22;1158;48.750;9.078;2024-03-08T02:08:10;0.60;99.90
2300;DHT22;1158;48.750;9.078;2024-03-08T02:10:41;0.60;99.90
2300;DHT22;1158;48.750;9.078;2024-03-08T02:13:08;0.60;99.90
2300;DHT22;1158;48.750;9.078;2024-03-08T02:15:52;0.60;99.90
2300;DHT22;1158;48.750;9.078;2024-03-08T02:18:19;0.60;99.90
2300;DHT22;1158;48.750;9.078;2024-03-08T02:20:47;0.50;99.90
2300;DHT22;1158;48.750;9.078;2024-03-08T02:23:14;0.50;99.90
2300;DHT22;1158;48.750;9.078;2024-03-08T02:25:41;0.50;99.90
2300;DHT22;1158;48.750;9.078;2024-03-08T02:28:09;0.50;99.90
2300;DHT22;1158;48.750;9.078;2024-03-08T02:30:36;0.40;99.90
2300;DHT22;1158;48.750;9.078;2024-03-08T02:33:04;0.40;99.90
2300;DHT22;1158;48.750;9.078;2024-03-08T02:35:30;0.40;99.90
2300;DHT22;1158;48.750;9.078;2024-03-08T02:37:59;0.30;99.90
2300;DHT22;1158;48.750;9.078;2024-03-08T02:40:25;0.30;99.90
2300;DHT22;1158;48.750;9.078;2024-03-08T02:42:52;0.30;99.90
2300;DHT22;1158;48.750;9.078;2024-03-08T02:45:19;0.30;99.90
2300;DHT22;1158;48.750;9.078;2024-03-08T02:47:46;0.30;99.90
2300;DHT22;1158;48.750;9.078;2024-03-08T02:50:15;0.30;99.90
2300;DHT22;1158;48.750;9.078;2024-03-08T02:52:42;0.30;99.90
2300;DHT22;1158;48.750;9.078;2024-03-08T02:55:10;0.30;99.90
2300;DHT22;1158;48.750;9.078;2024-03-08T02:57:40;0.30;99.90
2300;DHT22;1158;48.750;9.078;2024-03-08T03:00:08;0.40;99.90
2300;DHT22;1158;48.750;9.078;2024-03-08T03:02:35;0.30;99.90
2300;DHT22;1158;48.750;9.078;2024-03-08T03:05:03;0.30;99.90
2300;DHT22;1158;48.750;9.078;2024-03-08T03:07:31;0.20;99.90
2300;DHT22;1158;48.750;9.078;2024-03-08T03:09:58;0.20;99.90
2300;DHT22;1158;48.750;9.078;2024-03-08T03:12:27;0.30;99.90
2300;DHT22;1158;48.750;9.078;2024-03-08T03:14:53;0.30;99.90
2300;DHT22;1158;48.750;9.078;2024-03-08T03:17:21;0.20;99.90
2300;DHT22;1158;48.750;9.078;2024-03-08T03:19:48;0.20;99.90
2300;DHT22;1158;48.750;9.078;2024-03-08T03:22:15;0.20;99.90
2300;DHT22;1158;48.750;9.078;2024-03-08T03:24:42;0.20;99.90
2300;DHT22;1158;48.750;9.078;2024-03-08T03:27:08;0.10;99.90
2300;DHT22;1158;48.750;9.078;2024-03-08T03:29:38;0.10;99.90
2300;DHT22;1158;48.750;9.078;2024-03-08T03:32:07;0.10;99.90
2300;DHT22;1158;48.750;9.078;2024-03-08T03:34:34;0.00;99.90
2300;DHT22;1158;48.750;9.078;2024-03-08T03:37:02;0.10;99.90
2300;DHT22;1158;48.750;9.078;2024-03-08T03:39:28;0.00;99.90
2300;DHT22;1158;48.750;9.078;2024-03-08T03:41:57;0.00;99.90
2300;DHT22;1158;48.750;9.078;2024-03-08T03:44:24;0.00;99.90
2300;DHT22;1158;48.750;9.078;2024-03-08T03:46:54;0.00;99.90
2300;DHT22;1158;48.750;9.078;2024-03-08T03:49:21;0.00;99.90
2300;DHT22;1158;48.750;9.078;2024-03-08T03:51:49;0.00;99.90
2300;DHT22;1158;48.750;9.078;2024-03-08T03:54:15;-0.10;99.90
2300;DHT22;1158;48.750;9.078;2024-03-08T03:56:42;0.00;99.90
2300;DHT22;1158;48.750;9.078;2024-03-08T03:59:10;0.00;99.90
2300;DHT22;1158;48.750;9.078;2024-03-08T04:01:42;0.00;99.90
2300;DHT22;1158;48.750;9.078;2024-03-08T04:04:09;-0.10;99.90
2300;DHT22;1158;48.750;9.078;2024-03-08T04:06:38;-0.20;99.90
2300;DHT22;1158;48.750;9.078;2024-03-08T04:09:05;-0.20;99.90
2300;DHT22;1158;48.750;9.078;2024-03-08T04:11:32;-0.30;99.90
2300;DHT22;1158;48.750;9.078;2024-03-08T04:13:58;-0.40;99.90
2300;DHT22;1158;48.750;9.078;2024-03-08T04:16:25;-0.40;99.90
2300;DHT22;1158;48.750;9.078;2024-03-08T04:18:52;-0.50;99.90
2300;DHT22;1158;48.750;9.078;2024-03-08T04:21:20;-0.50;99.90
2300;DHT22;1158;48.750;9.078;2024-03-08T04:23:46;-0.40;99.90
2300;DHT22;1158;48.750;9.078;2024-03-08T04:26:13;-0.50;99.90
2300;DHT22;1158;48.750;9.078;2024-03-08T04:28:40;-0.50;99.90
2300;DHT22;1158;48.750;9.078;2024-03-08T04:31:07;-0.50;99.90
2300;DHT22;1158;48.750;9.078;2024-03-08T04:33:34;-0.50;99.90
2300;DHT22;1158;48.750;9.078;2024-03-08T04:36:01;-0.30;99.90
2300;DHT22;1158;48.750;9.078;2024-03-08T04:38:31;-0.30;99.90
2300;DHT22;1158;48.750;9.078;2024-03-08T04:40:57;-0.40;99.90
2300;DHT22;1158;48.750;9.078;2024-03-08T04:43:25;-0.40;99.90
2300;DHT22;1158;48.750;9.078;2024-03-08T04:45:52;-0.40;99.90
2300;DHT22;1158;48.750;9.078;2024-03-08T04:48:19;-0.40;99.90
2300;DHT22;1158;48.750;9.078;2024-03-08T04:50:46;-0.40;99.90
2300;DHT22;1158;48.750;9.078;2024-03-08T04:53:12;-0.40;99.90
2300;DHT22;1158;48.750;9.078;2024-03-08T04:55:40;-0.40;99.90
2300;DHT22;1158;48.750;9.078;2024-03-08T04:58:07;-0.40;99.90
2300;DHT22;1158;48.750;9.078;2024-03-08T05:00:34;-0.40;99.90
2300;DHT22;1158;48.750;9.078;2024-03-08T05:03:01;-0.40;99.90
2300;DHT22;1158;48.750;9.078;2024-03-08T05:05:28;-0.40;99.90
2300;DHT22;1158;48.750;9.078;2024-03-08T05:07:55;-0.50;99.90
2300;DHT22;1158;48.750;9.078;2024-03-08T05:10:22;-0.50;99.90
2300;DHT22;1158;48.750;9.078;2024-03-08T05:12:50;-0.50;99.90
2300;DHT22;1158;48.750;9.078;2024-03-08T05:15:17;-0.50;99.90
2300;DHT22;1158;48.750;9.078;2024-03-08T05:17:46;-0.50;99.90
2300;DHT22;1158;48.750;9.078;2024-03-08T05:20:12;-0.60;99.90
2300;DHT22;1158;48.750;9.078;2024-03-08T05:22:39;-0.60;99.90
2300;DHT22;1158;48.750;9.078;2024-03-08T05:25:07;-0.70;99.90
2300;DHT22;1158;48.750;9.078;2024-03-08T05:27:34;-0.70;99.90
2300;DHT22;1158;48.750;9.078;2024-03-08T05:30:03;-0.70;99.90
2300;DHT22;1158;48.750;9.078;2024-03-08T05:32:31;-0.70;99.90
2300;DHT22;1158;48.750;9.078;2024-03-08T05:34:57;-0.70;99.90
2300;DHT22;1158;48.750;9.078;2024-03-08T05:37:24;-0.80;99.90
2300;DHT22;1158;48.750;9.078;2024-03-08T05:39:51;-0.80;99.90
2300;DHT22;1158;48.750;9.078;2024-03-08T05:42:19;-0.80;99.90
2300;DHT22;1158;48.750;9.078;2024-03-08T05:44:45;-0.70;99.90
2300;DHT22;1158;48.750;9.078;2024-03-08T05:47:13;-0.70;99.90
2300;DHT22;1158;48.750;9.078;2024-03-08T05:49:42;-0.70;99.90
2300;DHT22;1158;48.750;9.078;2024-03-08T05:52:09;-0.80;99.90
2300;DHT22;1158;48.750;9.078;2024-03-08T05:54:36;-0.90;99.90
2300;DHT22;1158;48.750;9.078;2024-03-08T05:57:03;-0.90;99.90
2300;DHT22;1158;48.750;9.078;2024-03-08T05:59:30;-0.90;99.90
2300;DHT22;1158;48.750;9.078;2024-03-08T06:01:56;-0.90;99.90
2300;DHT22;1158;48.750;9.078;2024-03-08T06:04:24;-0.90;99.90
2300;DHT22;1158;48.750;9.078;2024-03-08T06:06:52;-0.90;99.90
2300;DHT22;1158;48.750;9.078;2024-03-08T06:09:21;-0.80;99.90
2300;DHT22;1158;48.750;9.078;2024-03-08T06:11:49;-0.80;99.90
2300;DHT22;1158;48.750;9.078;2024-03-08T06:14:16;-0.70;99.90
2300;DHT22;1158;48.750;9.078;2024-03-08T06:16:44;-0.80;99.90
2300;DHT22;1158;48.750;9.078;2024-03-08T06:19:10;-0.80;99.90
2300;DHT22;1158;48.750;9.078;2024-03-08T06:21:39;-0.70;99.90
2300;DHT22;1158;48.750;9.078;2024-03-08T06:24:07;-0.70;99.90
2300;DHT22;1158;48.750;9.078;2024-03-08T06:26:33;-0.60;99.90
2300;DHT22;1158;48.750;9.078;2024-03-08T06:29:00;-0.50;99.90
2300;DHT22;1158;48.750;9.078;2024-03-08T06:31:27;-0.40;99.90
2300;DHT22;1158;48.750;9.078;2024-03-08T06:33:54;0.40;99.90
2300;DHT22;1158;48.750;9.078;2024-03-08T06:36:20;0.30;99.90
2300;DHT22;1158;48.750;9.078;2024-03-08T06:38:49;0.10;99.90
2300;DHT22;1158;48.750;9.078;2024-03-08T06:41:16;-0.10;99.90
2300;DHT22;1158;48.750;9.078;2024-03-08T06:43:43;0.00;99.90
2300;DHT22;1158;48.750;9.078;2024-03-08T06:46:10;0.00;99.90
2300;DHT22;1158;48.750;9.078;2024-03-08T06:48:38;0.00;99.90
2300;DHT22;1158;48.750;9.078;2024-03-08T06:51:05;0.00;99.90
2300;DHT22;1158;48.750;9.078;2024-03-08T06:53:32;0.10;99.90
2300;DHT22;1158;48.750;9.078;2024-03-08T06:56:01;0.20;99.90
2300;DHT22;1158;48.750;9.078;2024-03-08T06:58:28;0.30;99.90
2300;DHT22;1158;48.750;9.078;2024-03-08T07:00:55;0.40;99.90
2300;DHT22;1158;48.750;9.078;2024-03-08T07:03:24;0.40;99.90
2300;DHT22;1158;48.750;9.078;2024-03-08T07:05:51;0.50;99.90
2300;DHT22;1158;48.750;9.078;2024-03-08T07:08:18;0.70;99.90
2300;DHT22;1158;48.750;9.078;2024-03-08T07:10:47;0.80;99.90
2300;DHT22;1158;48.750;9.078;2024-03-08T07:13:16;0.90;99.90
2300;DHT22;1158;48.750;9.078;2024-03-08T07:15:43;0.90;99.90
2300;DHT22;1158;48.750;9.078;2024-03-08T07:18:10;1.00;99.90
2300;DHT22;1158;48.750;9.078;2024-03-08T07:20:40;1.00;99.90
2300;DHT22;1158;48.750;9.078;2024-03-08T07:23:06;1.10;99.90
2300;DHT22;1158;48.750;9.078;2024-03-08T07:25:34;1.20;99.90
2300;DHT22;1158;48.750;9.078;2024-03-08T07:28:00;1.30;99.90
2300;DHT22;1158;48.750;9.078;2024-03-08T07:30:28;1.30;99.90
2300;DHT22;1158;48.750;9.078;2024-03-08T07:33:12;1.40;99.90
2300;DHT22;1158;48.750;9.078;2024-03-08T07:35:40;1.50;99.90
2300;DHT22;1158;48.750;9.078;2024-03-08T07:38:07;1.50;99.90
2300;DHT22;1158;48.750;9.078;2024-03-08T07:40:35;1.60;99.90
2300;DHT22;1158;48.750;9.078;2024-03-08T07:43:04;1.70;99.90
2300;DHT22;1158;48.750;9.078;2024-03-08T07:45:32;1.70;99.90
2300;DHT22;1158;48.750;9.078;2024-03-08T07:47:58;1.80;99.90
2300;DHT22;1158;48.750;9.078;2024-03-08T07:50:25;1.90;99.90
2300;DHT22;1158;48.750;9.078;2024-03-08T07:52:52;2.00;99.90
2300;DHT22;1158;48.750;9.078;2024-03-08T07:55:18;2.10;99.90
2300;DHT22;1158;48.750;9.078;2024-03-08T07:57:45;2.10;99.90
2300;DHT22;1158;48.750;9.078;2024-03-08T08:00:13;2.20;99.90
2300;DHT22;1158;48.750;9.078;2024-03-08T08:02:44;2.10;99.90
2300;DHT22;1158;48.750;9.078;2024-03-08T08:05:11;2.20;99.90
2300;DHT22;1158;48.750;9.078;2024-03-08T08:07:39;2.30;99.90
2300;DHT22;1158;48.750;9.078;2024-03-08T08:10:07;2.30;99.90
2300;DHT22;1158;48.750;9.078;2024-03-08T08:12:40;2.40;99.90
2300;DHT22;1158;48.750;9.078;2024-03-08T08:15:08;2.50;99.90
2300;DHT22;1158;48.750;9.078;2024-03-08T08:17:35;2.60;99.90
2300;DHT22;1158;48.750;9.078;2024-03-08T08:20:04;2.60;99.90
2300;DHT22;1158;48.750;9.078;2024-03-08T08:22:31;2.70;99.90
2300;DHT22;1158;48.750;9.078;2024-03-08T08:24:57;2.90;99.90
2300;DHT22;1158;48.750;9.078;2024-03-08T08:27:24;3.00;99.90
2300;DHT22;1158;48.750;9.078;2024-03-08T08:29:51;2.90;99.90
2300;DHT22;1158;48.750;9.078;2024-03-08T08:32:18;2.90;99.90
2300;DHT22;1158;48.750;9.078;2024-03-08T08:34:45;3.00;99.90
2300;DHT22;1158;48.750;9.078;2024-03-08T08:37:13;2.80;99.90
2300;DHT22;1158;48.750;9.078;2024-03-08T08:39:41;2.80;99.90
2300;DHT22;1158;48.750;9.078;2024-03-08T08:42:08;2.90;99.90
2300;DHT22;1158;48.750;9.078;2024-03-08T08:44:36;3.00;99.90
2300;DHT22;1158;48.750;9.078;2024-03-08T08:47:03;2.90;99.90
2300;DHT22;1158;48.750;9.078;2024-03-08T08:49:30;2.70;99.90
2300;DHT22;1158;48.750;9.078;2024-03-08T08:51:57;2.70;99.90
2300;DHT22;1158;48.750;9.078;2024-03-08T08:54:25;2.70;99.90
2300;DHT22;1158;48.750;9.078;2024-03-08T08:56:53;2.70;99.90
2300;DHT22;1158;48.750;9.078;2024-03-08T08:59:20;2.80;99.90
2300;DHT22;1158;48.750;9.078;2024-03-08T09:01:48;2.80;99.90
2300;DHT22;1158;48.750;9.078;2024-03-08T09:04:15;2.80;99.90
2300;DHT22;1158;48.750;9.078;2024-03-08T09:06:42;2.80;99.90
2300;DHT22;1158;48.750;9.078;2024-03-08T09:09:10;2.90;99.90
2300;DHT22;1158;48.750;9.078;2024-03-08T09:11:40;2.90;99.90
2300;DHT22;1158;48.750;9.078;2024-03-08T09:14:07;3.00;99.90
2300;DHT22;1158;48.750;9.078;2024-03-08T09:16:34;2.90;99.90
2300;DHT22;1158;48.750;9.078;2024-03-08T09:19:02;2.80;99.90
2300;DHT22;1158;48.750;9.078;2024-03-08T09:21:29;2.70;99.90
2300;DHT22;1158;48.750;9.078;2024-03-08T09:23:56;2.80;99.90
2300;DHT22;1158;48.750;9.078;2024-03-08T09:26:24;2.80;99.90
2300;DHT22;1158;48.750;9.078;2024-03-08T09:28:52;3.00;99.90
2300;DHT22;1158;48.750;9.078;2024-03-08T09:31:20;3.20;99.90
2300;DHT22;1158;48.750;9.078;2024-03-08T09:33:46;3.30;99.90
2300;DHT22;1158;48.750;9.078;2024-03-08T09:36:13;3.40;99.90
2300;DHT22;1158;48.750;9.078;2024-03-08T09:38:40;3.40;99.90
2300;DHT22;1158;48.750;9.078;2024-03-08T09:41:07;3.40;99.90
2300;DHT22;1158;48.750;9.078;2024-03-08T09:43:35;3.40;99.90
2300;DHT22;1158;48.750;9.078;2024-03-08T09:46:05;3.30;99.90
2300;DHT22;1158;48.750;9.078;2024-03-08T09:48:32;3.40;99.90
2300;DHT22;1158;48.750;9.078;2024-03-08T09:51:00;3.40;99.90
2300;DHT22;1158;48.750;9.078;2024-03-08T09:53:26;3.50;99.90
2300;DHT22;1158;48.750;9.078;2024-03-08T09:55:53;3.50;99.90
2300;DHT22;1158;48.750;9.078;2024-03-08T09:58:20;3.60;99.90
2300;DHT22;1158;48.750;9.078;2024-03-08T10:01:03;3.80;99.90
2300;DHT22;1158;48.750;9.078;2024-03-08T10:03:31;3.90;99.90
2300;DHT22;1158;48.750;9.078;2024-03-08T10:05:59;4.00;99.90
2300;DHT22;1158;48.750;9.078;2024-03-08T10:08:26;4.00;99.90
2300;DHT22;1158;48.750;9.078;2024-03-08T10:10:54;4.00;99.90
2300;DHT22;1158;48.750;9.078;2024-03-08T10:13:25;4.30;99.90
2300;DHT22;1158;48.750;9.078;2024-03-08T10:15:52;4.40;99.90
2300;DHT22;1158;48.750;9.078;2024-03-08T10:18:20;4.50;99.90
2300;DHT22;1158;48.750;9.078;2024-03-08T10:21:02;4.60;99.90
2300;DHT22;1158;48.750;9.078;2024-03-08T10:23:30;4.70;99.90
2300;DHT22;1158;48.750;9.078;2024-03-08T10:25:57;4.70;99.90
2300;DHT22;1158;48.750;9.078;2024-03-08T10:28:24;4.60;99.90
2300;DHT22;1158;48.750;9.078;2024-03-08T10:30:51;4.50;99.90
2300;DHT22;1158;48.750;9.078;2024-03-08T10:33:18;4.50;99.90
2300;DHT22;1158;48.750;9.078;2024-03-08T10:35:46;4.80;99.90
2300;DHT22;1158;48.750;9.078;2024-03-08T10:38:14;4.90;99.90
2300;DHT22;1158;48.750;9.078;2024-03-08T10:40:46;5.00;99.90
2300;DHT22;1158;48.750;9.078;2024-03-08T10:43:22;4.80;99.90
2300;DHT22;1158;48.750;9.078;2024-03-08T10:45:57;4.80;99.90
2300;DHT22;1158;48.750;9.078;2024-03-08T10:48:30;4.80;99.90
2300;DHT22;1158;48.750;9.078;2024-03-08T10:50:59;5.00;99.90
2300;DHT22;1158;48.750;9.078;2024-03-08T10:53:29;5.10;99.90
2300;DHT22;1158;48.750;9.078;2024-03-08T10:55:56;4.90;99.90
2300;DHT22;1158;48.750;9.078;2024-03-08T10:58:24;5.00;99.90
2300;DHT22;1158;48.750;9.078;2024-03-08T11:00:52;5.20;99.90
2300;DHT22;1158;48.750;9.078;2024-03-08T11:03:45;5.50;99.90
2300;DHT22;1158;48.750;9.078;2024-03-08T11:06:16;5.30;99.90
2300;DHT22;1158;48.750;9.078;2024-03-08T11:08:44;5.30;99.90
2300;DHT22;1158;48.750;9.078;2024-03-08T11:11:25;5.00;99.90
2300;DHT22;1158;48.750;9.078;2024-03-08T11:13:55;5.10;99.90
2300;DHT22;1158;48.750;9.078;2024-03-08T11:16:43;5.50;99.90
2300;DHT22;1158;48.750;9.078;2024-03-08T11:19:26;5.90;99.90
2300;DHT22;1158;48.750;9.078;2024-03-08T11:22:02;5.80;99.90
2300;DHT22;1158;48.750;9.078;2024-03-08T11:24:37;6.30;99.90
2300;DHT22;1158;48.750;9.078;2024-03-08T11:27:05;6.60;99.90
2300;DHT22;1158;48.750;9.078;2024-03-08T11:29:36;6.70;99.90
2300;DHT22;1158;48.750;9.078;2024-03-08T11:32:08;6.90;99.90
2300;DHT22;1158;48.750;9.078;2024-03-08T11:34:36;6.50;99.90
2300;DHT22;1158;48.750;9.078;2024-03-08T11:37:05;6.20;99.90
2300;DHT22;1158;48.750;9.078;2024-03-08T11:39:35;5.90;99.90
2300;DHT22;1158;48.750;9.078;2024-03-08T11:42:03;6.10;99.90
2300;DHT22;1158;48.750;9.078;2024-03-08T11:44:30;6.40;99.90
2300;DHT22;1158;48.750;9.078;2024-03-08T11:46:57;6.70;99.90
2300;DHT22;1158;48.750;9.078;2024-03-08T11:49:24;7.20;99.90
2300;DHT22;1158;48.750;9.078;2024-03-08T11:51:52;7.40;99.90
2300;DHT22;1158;48.750;9.078;2024-03-08T11:54:20;7.70;99.90
2300;DHT22;1158;48.750;9.078;2024-03-08T11:56:47;8.10;99.90
2300;DHT22;1158;48.750;9.078;2024-03-08T11:59:14;8.50;99.90
2300;DHT22;1158;48.750;9.078;2024-03-08T12:01:40;8.30;99.90
2300;DHT22;1158;48.750;9.078;2024-03-08T12:04:12;8.40;99.90
2300;DHT22;1158;48.750;9.078;2024-03-08T12:06:40;8.60;99.90
2300;DHT22;1158;48.750;9.078;2024-03-08T12:09:10;8.90;99.90
2300;DHT22;1158;48.750;9.078;2024-03-08T12:11:39;8.60;99.90
2300;DHT22;1158;48.750;9.078;2024-03-08T12:14:06;8.90;99.90
2300;DHT22;1158;48.750;9.078;2024-03-08T12:16:33;8.50;99.90
2300;DHT22;1158;48.750;9.078;2024-03-08T12:19:00;8.40;99.90
2300;DHT22;1158;48.750;9.078;2024-03-08T12:21:31;8.80;99.90
2300;DHT22;1158;48.750;9.078;2024-03-08T12:24:04;9.10;99.90
2300;DHT22;1158;48.750;9.078;2024-03-08T12:26:31;8.90;99.90
2300;DHT22;1158;48.750;9.078;2024-03-08T12:29:17;9.10;99.90
2300;DHT22;1158;48.750;9.078;2024-03-08T12:31:46;9.40;99.90
2300;DHT22;1158;48.750;9.078;2024-03-08T12:34:13;9.90;99.70
2300;DHT22;1158;48.750;9.078;2024-03-08T12:36:45;10.20;99.90
2300;DHT22;1158;48.750;9.078;2024-03-08T12:39:15;11.20;98.80
2300;DHT22;1158;48.750;9.078;2024-03-08T12:41:43;11.30;97.90
2300;DHT22;1158;48.750;9.078;2024-03-08T12:44:10;11.50;98.50
2300;DHT22;1158;48.750;9.078;2024-03-08T12:46:39;11.40;96.40
2300;DHT22;1158;48.750;9.078;2024-03-08T12:49:07;11.40;95.90
2300;DHT22;1158;48.750;9.078;2024-03-08T12:51:35;11.30;95.50
2300;DHT22;1158;48.750;9.078;2024-03-08T12:54:02;11.60;97.50
2300;DHT22;1158;48.750;9.078;2024-03-08T12:56:30;11.70;95.40
2300;DHT22;1158;48.750;9.078;2024-03-08T12:58:58;11.30;95.40
2300;DHT22;1158;48.750;9.078;2024-03-08T13:01:26;11.20;95.60
2300;DHT22;1158;48.750;9.078;2024-03-08T13:03:54;11.10;95.40
2300;DHT22;1158;48.750;9.078;2024-03-08T13:06:22;10.90;94.90
2300;DHT22;1158;48.750;9.078;2024-03-08T13:08:50;10.80;95.60
2300;DHT22;1158;48.750;9.078;2024-03-08T13:11:17;10.70;96.20
2300;DHT22;1158;48.750;9.078;2024-03-08T13:13:44;10.60;95.00
2300;DHT22;1158;48.750;9.078;2024-03-08T13:16:11;10.80;95.80
2300;DHT22;1158;48.750;9.078;2024-03-08T13:18:40;11.70;95.80
2300;DHT22;1158;48.750;9.078;2024-03-08T13:21:09;11.80;95.20
2300;DHT22;1158;48.750;9.078;2024-03-08T13:23:41;11.70;95.60
2300;DHT22;1158;48.750;9.078;2024-03-08T13:26:12;11.20;94.70
2300;DHT22;1158;48.750;9.078;2024-03-08T13:28:40;11.30;94.90
2300;DHT22;1158;48.750;9.078;2024-03-08T13:31:07;11.50;94.40
2300;DHT22;1158;48.750;9.078;2024-03-08T13:33:36;12.20;93.90
2300;DHT22;1158;48.750;9.078;2024-03-08T13:36:05;12.30;93.60
2300;DHT22;1158;48.750;9.078;2024-03-08T13:38:42;12.60;93.10
2300;DHT22;1158;48.750;9.078;2024-03-08T13:41:09;12.70;93.60
2300;DHT22;1158;48.750;9.078;2024-03-08T13:43:36;13.00;92.70
2300;DHT22;1158;48.750;9.078;2024-03-08T13:46:03;13.10;92.50
2300;DHT22;1158;48.750;9.078;2024-03-08T13:48:31;12.70;92.20
2300;DHT22;1158;48.750;9.078;2024-03-08T13:50:58;12.50;92.70
2300;DHT22;1158;48.750;9.078;2024-03-08T13:53:25;13.10;93.00
2300;DHT22;1158;48.750;9.078;2024-03-08T13:55:54;13.40;91.40
2300;DHT22;1158;48.750;9.078;2024-03-08T13:58:22;13.40;91.70
2300;DHT22;1158;48.750;9.078;2024-03-08T14:00:49;13.30;91.30
2300;DHT22;1158;48.750;9.078;2024-03-08T14:03:17;13.30;91.10
2300;DHT22;1158;48.750;9.078;2024-03-08T14:05:44;13.30;90.90
2300;DHT22;1158;48.750;9.078;2024-03-08T14:08:12;12.90;91.00
2300;DHT22;1158;48.750;9.078;2024-03-08T14:10:39;12.30;91.80
2300;DHT22;1158;48.750;9.078;2024-03-08T14:13:09;12.30;92.00
2300;DHT22;1158;48.750;9.078;2024-03-08T14:15:37;12.60;91.90
2300;DHT22;1158;48.750;9.078;2024-03-08T14:18:07;12.70;91.40
2300;DHT22;1158;48.750;9.078;2024-03-08T14:20:34;13.00;91.20
2300;DHT22;1158;48.750;9.078;2024-03-08T14:23:01;13.50;90.90
2300;DHT22;1158;48.750;9.078;2024-03-08T14:25:28;13.70;90.50
2300;DHT22;1158;48.750;9.078;2024-03-08T14:27:55;14.30;90.30
2300;DHT22;1158;48.750;9.078;2024-03-08T14:30:25;15.10;88.40
2300;DHT22;1158;48.750;9.078;2024-03-08T14:33:03;15.30;87.30
2300;DHT22;1158;48.750;9.078;2024-03-08T14:35:31;15.40;86.40
2300;DHT22;1158;48.750;9.078;2024-03-08T14:37:58;15.50;85.80
2300;DHT22;1158;48.750;9.078;2024-03-08T14:40:25;14.90;86.30
2300;DHT22;1158;48.750;9.078;2024-03-08T14:42:52;15.10;85.60
2300;DHT22;1158;48.750;9.078;2024-03-08T14:45:19;15.00;87.90
2300;DHT22;1158;48.750;9.078;2024-03-08T14:47:48;15.50;86.70
2300;DHT22;1158;48.750;9.078;2024-03-08T14:50:16;15.70;85.60
2300;DHT22;1158;48.750;9.078;2024-03-08T14:52:43;15.60;86.30
2300;DHT22;1158;48.750;9.078;2024-03-08T14:55:10;16.00;85.00
2300;DHT22;1158;48.750;9.078;2024-03-08T14:57:40;15.70;83.90
2300;DHT22;1158;48.750;9.078;2024-03-08T15:00:07;15.50;84.50
2300;DHT22;1158;48.750;9.078;2024-03-08T15:02:42;15.30;84.70
2300;DHT22;1158;48.750;9.078;2024-03-08T15:05:10;15.70;85.10
2300;DHT22;1158;48.750;9.078;2024-03-08T15:07:38;15.70;83.40
2300;DHT22;1158;48.750;9.078;2024-03-08T15:10:07;14.70;84.40
2300;DHT22;1158;48.750;9.078;2024-03-08T15:12:37;14.70;89.30
2300;DHT22;1158;48.750;9.078;2024-03-08T15:15:06;15.00;85.50
2300;DHT22;1158;48.750;9.078;2024-03-08T15:17:35;15.10;84.50
2300;DHT22;1158;48.750;9.078;2024-03-08T15:20:06;14.30;85.10
2300;DHT22;1158;48.750;9.078;2024-03-08T15:22:42;14.20;86.70
2300;DHT22;1158;48.750;9.078;2024-03-08T15:25:09;14.30;86.50
2300;DHT22;1158;48.750;9.078;2024-03-08T15:27:38;14.10;86.10
2300;DHT22;1158;48.750;9.078;2024-03-08T15:30:07;13.70;87.30
2300;DHT22;1158;48.750;9.078;2024-03-08T15:32:39;13.70;88.20
2300;DHT22;1158;48.750;9.078;2024-03-08T15:35:07;14.30;87.40
2300;DHT22;1158;48.750;9.078;2024-03-08T15:37:40;14.40;87.20
2300;DHT22;1158;48.750;9.078;2024-03-08T15:40:09;14.90;86.90
2300;DHT22;1158;48.750;9.078;2024-03-08T15:42:47;14.90;86.50
2300;DHT22;1158;48.750;9.078;2024-03-08T15:45:14;15.10;85.90
2300;DHT22;1158;48.750;9.078;2024-03-08T15:47:41;15.20;88.80
2300;DHT22;1158;48.750;9.078;2024-03-08T15:50:09;15.20;85.60
2300;DHT22;1158;48.750;9.078;2024-03-08T15:52:38;14.30;86.40
2300;DHT22;1158;48.750;9.078;2024-03-08T15:55:08;13.60;88.00
2300;DHT22;1158;48.750;9.078;2024-03-08T15:57:34;13.80;88.40
2300;DHT22;1158;48.750;9.078;2024-03-08T16:00:01;14.20;88.50
2300;DHT22;1158;48.750;9.078;2024-03-08T16:02:39;14.20;87.50
2300;DHT22;1158;48.750;9.078;2024-03-08T16:05:06;13.90;87.70
2300;DHT22;1158;48.750;9.078;2024-03-08T16:07:34;13.90;88.30
2300;DHT22;1158;48.750;9.078;2024-03-08T16:10:00;13.60;88.30
2300;DHT22;1158;48.750;9.078;2024-03-08T16:12:28;13.20;89.60
2300;DHT22;1158;48.750;9.078;2024-03-08T16:14:55;13.40;90.20
2300;DHT22;1158;48.750;9.078;2024-03-08T16:17:22;13.60;88.50